createdAt,value
2022-11-22T00:01:05.617Z,13.07
2022-11-22T00:03:51.478Z,12.30
2022-11-22T00:06:37.398Z,12.98
2022-11-22T00:09:23.246Z,12.68
2022-11-22T00:12:09.227Z,13.23
2022-11-22T00:14:56.966Z,13.70
2022-11-22T00:17:43.108Z,11.65
2022-11-22T00:20:29.558Z,11.48
2022-11-22T00:23:16.325Z,10.18
2022-11-22T00:26:02.178Z,10.18
2022-11-22T00:28:48.207Z,9.43
2022-11-22T00:31:34.086Z,9.88
2022-11-22T00:34:19.984Z,8.77
2022-11-22T00:37:06.005Z,9.38
2022-11-22T00:39:52.056Z,9.93
2022-11-22T00:42:38.165Z,10.10
2022-11-22T00:45:24.133Z,9.85
2022-11-22T00:48:10.091Z,10.40
2022-11-22T00:50:56.386Z,10.57
2022-11-22T00:53:42.043Z,10.65
2022-11-22T00:56:27.996Z,11.35
2022-11-22T00:59:13.993Z,11.77
2022-11-22T01:01:59.885Z,9.43
2022-11-22T01:04:45.792Z,9.82
2022-11-22T01:07:31.630Z,11.60
2022-11-22T01:10:17.593Z,10.32
2022-11-22T01:13:04.871Z,9.77
2022-11-22T01:15:50.797Z,10.35
2022-11-22T01:18:36.879Z,9.23
2022-11-22T01:21:23.194Z,9.80
2022-11-22T01:24:09.790Z,10.05
2022-11-22T01:26:56.374Z,10.68
2022-11-22T01:29:42.691Z,10.90
2022-11-22T01:32:28.802Z,11.45
2022-11-22T01:35:15.126Z,11.05
2022-11-22T01:38:01.360Z,11.10
2022-11-22T01:40:47.406Z,10.32
2022-11-22T01:43:33.575Z,11.05
2022-11-22T01:46:32.017Z,9.75
2022-11-22T01:49:30.994Z,10.52
2022-11-22T01:52:22.712Z,10.93
2022-11-22T01:55:11.621Z,10.88
2022-11-22T01:57:58.414Z,10.40
2022-11-22T02:00:44.635Z,10.50
2022-11-22T02:03:32.632Z,10.15
2022-11-22T02:06:19.891Z,11.48
2022-11-22T02:09:13.015Z,10.90
2022-11-22T02:12:01.998Z,10.38
2022-11-22T02:14:48.944Z,11.00
2022-11-22T02:17:34.992Z,10.02
2022-11-22T02:20:20.794Z,10.93
2022-11-22T02:23:12.630Z,11.55
2022-11-22T02:26:00.868Z,10.63
2022-11-22T02:28:47.186Z,10.13
2022-11-22T02:31:44.746Z,10.50
2022-11-22T02:34:41.906Z,10.02
2022-11-22T02:37:31.479Z,10.93
2022-11-22T02:40:18.387Z,11.02
2022-11-22T02:43:11.723Z,10.90
2022-11-22T02:46:04.661Z,10.40
2022-11-22T02:48:51.136Z,10.82
2022-11-22T02:51:37.076Z,11.38
2022-11-22T02:54:23.275Z,10.50
2022-11-22T02:57:09.326Z,11.02
2022-11-22T02:59:55.148Z,10.38
2022-11-22T03:02:41.159Z,10.18
2022-11-22T03:05:27.254Z,9.90
2022-11-22T03:08:13.146Z,10.85
2022-11-22T03:10:59.152Z,9.98
2022-11-22T03:13:45.237Z,10.93
2022-11-22T03:16:31.754Z,11.57
2022-11-22T03:19:17.630Z,10.18
2022-11-22T03:22:03.451Z,10.50
2022-11-22T03:24:49.498Z,9.38
2022-11-22T03:27:35.272Z,9.13
2022-11-22T03:30:21.320Z,7.75
2022-11-22T03:33:07.462Z,8.50
2022-11-22T03:35:59.427Z,7.82
2022-11-22T03:38:45.377Z,8.50
2022-11-22T03:41:31.328Z,9.20
2022-11-22T03:44:17.111Z,24.20
2022-11-22T03:47:02.938Z,16.27
2022-11-22T03:49:49.058Z,17.00
2022-11-22T03:52:34.835Z,16.65
2022-11-22T03:55:20.890Z,14.00
2022-11-22T03:58:06.874Z,13.88
2022-11-22T04:00:52.971Z,13.93
2022-11-22T04:03:38.947Z,14.18
2022-11-22T04:06:24.728Z,14.18
2022-11-22T04:09:10.642Z,13.48
2022-11-22T04:11:56.425Z,13.88
2022-11-22T04:15:00.784Z,13.75
2022-11-22T04:17:48.100Z,12.70
2022-11-22T04:20:53.137Z,11.07
2022-11-22T04:23:39.402Z,10.88
2022-11-22T04:26:25.220Z,10.75
2022-11-22T04:29:11.209Z,10.57
2022-11-22T04:32:15.628Z,9.13
2022-11-22T04:35:01.694Z,14.43
2022-11-22T04:37:51.787Z,11.35
2022-11-22T04:40:38.414Z,9.80
2022-11-22T04:43:44.864Z,10.18
2022-11-22T04:46:31.555Z,10.77
2022-11-22T04:49:17.703Z,10.70
2022-11-22T04:52:23.145Z,10.77
2022-11-22T04:55:09.452Z,12.68
2022-11-22T04:57:59.763Z,11.65
2022-11-22T05:00:46.880Z,11.13
2022-11-22T05:03:33.015Z,12.35
2022-11-22T05:06:19.159Z,13.73
2022-11-22T05:09:05.044Z,12.82
2022-11-22T05:11:51.374Z,12.38
2022-11-22T05:14:37.247Z,14.90
2022-11-22T05:17:23.365Z,15.63
2022-11-22T05:20:10.093Z,21.50
2022-11-22T05:23:14.596Z,20.88
2022-11-22T05:26:00.711Z,25.25
2022-11-22T05:28:46.750Z,23.77
2022-11-22T05:31:34.601Z,27.98
2022-11-22T05:34:20.714Z,28.02
2022-11-22T05:37:06.730Z,25.95
2022-11-22T05:39:52.608Z,24.85
2022-11-22T05:42:38.420Z,24.73
2022-11-22T05:45:24.386Z,23.60
2022-11-22T05:48:10.175Z,22.63
2022-11-22T05:50:56.087Z,22.08
2022-11-22T05:53:42.876Z,21.60
2022-11-22T05:56:28.544Z,21.52
2022-11-22T05:59:14.668Z,22.33
2022-11-22T06:02:00.552Z,22.20
2022-11-22T06:04:46.445Z,21.25
2022-11-22T06:07:32.617Z,22.42
2022-11-22T06:10:18.474Z,23.52
2022-11-22T06:13:04.583Z,20.80
2022-11-22T06:15:50.352Z,23.92
2022-11-22T06:18:36.679Z,24.27
2022-11-22T06:32:37.378Z,21.80
2022-11-22T06:35:23.387Z,20.23
2022-11-22T06:38:09.239Z,18.52
2022-11-22T06:41:02.819Z,17.67
2022-11-22T06:43:49.945Z,17.92
2022-11-22T06:46:36.420Z,17.02
2022-11-22T06:49:22.571Z,19.33
2022-11-22T06:52:08.495Z,21.38
2022-11-22T06:54:54.283Z,24.20
2022-11-22T06:57:40.195Z,25.80
2022-11-22T07:00:26.037Z,28.77
2022-11-22T07:03:11.917Z,27.63
2022-11-22T07:05:57.814Z,25.98
2022-11-22T07:08:44.467Z,25.42
2022-11-22T07:11:32.060Z,25.65
2022-11-22T07:14:18.035Z,25.02
2022-11-22T07:17:03.905Z,26.90
2022-11-22T07:19:49.842Z,24.55
2022-11-22T07:22:35.637Z,28.80
2022-11-22T07:25:21.515Z,27.08
2022-11-22T07:28:07.474Z,28.80
2022-11-22T07:30:53.851Z,27.25
2022-11-22T07:33:40.348Z,26.33
2022-11-22T07:36:29.420Z,26.45
2022-11-22T07:39:15.179Z,26.27
2022-11-22T07:42:00.984Z,27.38
2022-11-22T07:44:47.090Z,27.23
2022-11-22T07:47:32.906Z,26.20
2022-11-22T07:50:18.985Z,27.05
2022-11-22T07:53:05.298Z,28.33
2022-11-22T07:55:51.124Z,30.00
2022-11-22T07:58:37.691Z,27.33
2022-11-22T08:01:23.827Z,27.45
2022-11-22T08:04:09.800Z,30.67
2022-11-22T08:06:55.801Z,25.85
2022-11-22T08:09:41.644Z,28.80
2022-11-22T08:12:27.588Z,23.05
2022-11-22T08:15:15.165Z,26.52
2022-11-22T08:18:01.198Z,28.38
2022-11-22T08:20:47.217Z,27.45
2022-11-22T08:23:33.457Z,25.55
2022-11-22T08:26:21.091Z,23.95
2022-11-22T08:29:13.924Z,34.00
2022-11-22T08:32:00.410Z,28.60
2022-11-22T08:34:47.496Z,25.33
2022-11-22T08:37:33.931Z,29.17
2022-11-22T08:40:20.080Z,25.58
2022-11-22T08:43:06.075Z,24.10
2022-11-22T08:45:59.423Z,27.27
2022-11-22T08:48:46.008Z,23.85
2022-11-22T08:51:32.979Z,33.90
2022-11-22T08:54:18.922Z,26.58
2022-11-22T08:57:04.880Z,25.52
2022-11-22T08:59:50.975Z,21.70
2022-11-22T09:02:37.036Z,22.75
2022-11-22T09:05:23.693Z,20.55
2022-11-22T09:08:25.025Z,23.70
2022-11-22T09:11:15.002Z,24.73
2022-11-22T09:14:01.142Z,24.75
2022-11-22T09:16:47.365Z,23.23
2022-11-22T09:19:33.460Z,25.55
2022-11-22T09:22:21.780Z,25.95
2022-11-22T09:25:10.179Z,24.77
2022-11-22T09:28:00.157Z,32.28
2022-11-22T09:30:46.404Z,28.77
2022-11-22T09:33:34.139Z,27.42
2022-11-22T09:36:22.408Z,25.90
2022-11-22T09:39:09.149Z,23.52
2022-11-22T09:42:30.894Z,25.13
2022-11-22T09:45:35.049Z,25.08
2022-11-22T09:48:47.706Z,24.75
2022-11-22T09:51:41.127Z,28.42
2022-11-22T09:54:34.020Z,31.40
2022-11-22T09:57:24.176Z,30.10
2022-11-22T10:00:30.780Z,33.85
2022-11-22T10:03:29.766Z,31.08
2022-11-22T10:06:32.743Z,28.30
2022-11-22T10:09:18.690Z,32.25
2022-11-22T10:12:28.016Z,27.30
2022-11-22T10:15:39.741Z,26.20
2022-11-22T10:18:34.744Z,26.40
2022-11-22T10:21:21.086Z,27.88
2022-11-22T10:24:13.000Z,31.27
2022-11-22T10:27:00.316Z,31.00
2022-11-22T10:30:03.654Z,29.85
2022-11-22T10:36:17.476Z,30.50
2022-11-22T10:39:14.104Z,33.30
2022-11-22T10:42:06.179Z,31.73
2022-11-22T10:45:03.553Z,38.15
2022-11-22T10:47:55.446Z,36.75
2022-11-22T10:51:00.848Z,35.10
2022-11-22T10:53:49.971Z,37.92
2022-11-22T10:57:07.011Z,34.38
2022-11-22T11:00:14.053Z,32.63
2022-11-22T11:03:13.474Z,33.05
2022-11-22T11:06:33.325Z,32.10
2022-11-22T11:12:57.341Z,32.72
2022-11-22T11:15:52.736Z,29.90
2022-11-22T11:18:49.848Z,32.85
2022-11-22T11:21:36.015Z,30.98
2022-11-22T11:24:22.000Z,28.73
2022-11-22T11:27:10.634Z,27.52
2022-11-22T11:30:04.275Z,26.67
2022-11-22T11:32:56.860Z,26.38
2022-11-22T11:35:45.044Z,24.58
2022-11-22T11:38:43.081Z,23.50
2022-11-22T11:41:29.185Z,21.23
2022-11-22T11:44:32.479Z,20.35
2022-11-22T11:47:21.089Z,20.30
2022-11-22T11:50:24.012Z,21.70
2022-11-22T11:53:16.758Z,21.17
2022-11-22T11:56:20.975Z,20.25
2022-11-22T11:59:19.741Z,19.83
2022-11-22T12:02:39.964Z,18.98
2022-11-22T12:05:31.331Z,19.40
2022-11-22T12:08:32.811Z,21.70
2022-11-22T12:11:43.230Z,21.17
2022-11-22T12:14:48.721Z,15.73
2022-11-22T12:17:38.657Z,14.82
2022-11-22T12:20:42.712Z,16.60
2022-11-22T12:23:36.300Z,16.48
2022-11-22T12:26:22.411Z,18.95
2022-11-22T12:29:12.941Z,19.80
2022-11-22T12:32:03.434Z,15.45
2022-11-22T12:34:59.164Z,15.00
2022-11-22T12:37:55.526Z,16.80
2022-11-22T12:40:48.265Z,14.85
2022-11-22T12:43:39.983Z,13.07
2022-11-22T12:46:30.730Z,11.55
2022-11-22T12:49:22.700Z,11.27
2022-11-22T12:52:22.789Z,6.68
2022-11-22T12:55:21.719Z,5.55
2022-11-22T12:58:17.069Z,5.40
2022-11-22T13:01:09.344Z,5.82
2022-11-22T13:04:10.733Z,5.70
2022-11-22T13:07:15.679Z,6.20
2022-11-22T13:10:17.239Z,5.97
2022-11-22T13:13:04.689Z,4.75
2022-11-22T13:15:52.706Z,4.53
2022-11-22T13:18:44.074Z,3.72
2022-11-22T13:21:49.133Z,4.72
2022-11-22T13:24:47.011Z,4.78
2022-11-22T13:27:44.700Z,4.78
2022-11-22T13:30:39.535Z,4.50
2022-11-22T13:33:26.243Z,4.22
2022-11-22T13:36:25.348Z,4.70
2022-11-22T13:39:19.461Z,5.40
2022-11-22T13:42:06.666Z,5.93
2022-11-22T13:45:08.312Z,6.30
2022-11-22T13:47:54.518Z,6.57
2022-11-22T13:50:40.392Z,5.13
2022-11-22T13:53:29.073Z,6.05
2022-11-22T13:56:15.174Z,5.82
2022-11-22T13:59:18.848Z,6.30
2022-11-22T14:02:21.756Z,7.22
2022-11-22T14:05:23.210Z,7.38
2022-11-22T14:08:27.463Z,6.25
2022-11-22T14:11:18.092Z,6.30
2022-11-22T14:14:12.379Z,8.13
2022-11-22T14:17:41.494Z,10.50
2022-11-22T14:20:37.302Z,11.60
2022-11-22T14:23:50.612Z,9.13
2022-11-22T14:26:54.668Z,7.85
2022-11-22T14:29:54.024Z,6.90
2022-11-22T14:32:41.863Z,5.72
2022-11-22T14:35:32.214Z,6.75
2022-11-22T14:38:28.454Z,7.78
2022-11-22T14:41:38.155Z,8.65
2022-11-22T14:44:32.428Z,10.48
2022-11-22T14:47:18.364Z,7.18
2022-11-22T14:50:09.014Z,8.90
2022-11-22T14:52:58.010Z,7.80
2022-11-22T14:55:44.684Z,6.55
2022-11-22T14:58:30.959Z,6.78
2022-11-22T15:01:56.452Z,7.18
2022-11-22T15:09:20.506Z,6.63
2022-11-22T15:11:58.721Z,7.65
2022-11-22T15:14:51.216Z,8.18
2022-11-22T15:59:35.816Z,7.75
2022-11-22T16:02:25.272Z,7.38
2022-11-22T16:06:04.716Z,7.20
2022-11-22T16:08:17.777Z,6.88
2022-11-22T16:11:04.418Z,7.65
2022-11-22T16:13:50.520Z,7.70
2022-11-22T16:16:36.396Z,6.03
2022-11-22T16:19:24.233Z,5.75
2022-11-22T16:22:28.423Z,5.72
2022-11-22T16:25:31.523Z,6.15
2022-11-22T16:28:26.894Z,5.20
2022-11-22T16:31:18.257Z,4.70
2022-11-22T16:34:12.849Z,6.10
2022-11-22T16:36:59.123Z,6.70
2022-11-22T16:39:45.279Z,6.50
2022-11-22T16:42:38.071Z,6.93
2022-11-22T16:45:24.153Z,6.63
2022-11-22T16:48:33.041Z,7.03
2022-11-22T16:51:24.049Z,8.90
2022-11-22T16:54:14.409Z,10.52
2022-11-22T16:57:00.269Z,10.43
2022-11-22T16:59:46.135Z,13.02
2022-11-22T17:02:32.188Z,12.20
2022-11-22T17:05:18.290Z,9.43
2022-11-22T17:08:10.746Z,8.43
2022-11-22T17:10:56.912Z,8.75
2022-11-22T17:13:42.908Z,8.75
2022-11-22T17:16:29.058Z,8.98
2022-11-22T17:19:52.675Z,7.75
2022-11-22T17:22:22.912Z,7.07
2022-11-22T17:25:12.312Z,6.40
2022-11-22T17:27:58.096Z,6.47
2022-11-22T17:30:44.146Z,8.18
2022-11-22T17:33:30.002Z,10.73
2022-11-22T17:36:22.706Z,13.63
2022-11-22T17:39:12.510Z,13.88
2022-11-22T17:41:58.431Z,12.57
2022-11-22T17:44:44.433Z,13.98
2022-11-22T17:47:31.018Z,13.48
2022-11-22T17:50:17.351Z,11.80
2022-11-22T17:53:03.258Z,11.90
2022-11-22T17:56:09.345Z,11.68
2022-11-22T17:58:55.243Z,7.07
2022-11-22T18:01:41.178Z,7.50
2022-11-22T18:04:27.076Z,6.50
2022-11-22T18:07:13.194Z,6.85
2022-11-22T18:09:59.189Z,7.20
2022-11-22T18:12:58.636Z,6.75
2022-11-22T18:16:02.961Z,7.85
2022-11-22T18:18:56.802Z,8.25
2022-11-22T18:21:43.863Z,9.40
2022-11-22T18:24:29.919Z,9.57
2022-11-22T18:27:16.075Z,9.68
2022-11-22T18:30:02.270Z,11.52
2022-11-22T18:32:48.416Z,12.05
2022-11-22T18:35:34.434Z,11.10
2022-11-22T18:38:20.239Z,10.88
2022-11-22T18:41:06.315Z,10.18
2022-11-22T18:43:54.341Z,10.23
2022-11-22T18:46:40.488Z,12.13
2022-11-22T18:49:26.637Z,12.48
2022-11-22T18:52:15.000Z,13.15
2022-11-22T18:55:05.374Z,12.35
2022-11-22T18:57:51.442Z,11.57
2022-11-22T19:00:37.425Z,11.88
2022-11-22T19:03:23.468Z,9.85
2022-11-22T19:06:12.945Z,10.32
2022-11-22T19:08:59.021Z,9.55
2022-11-22T19:11:45.357Z,8.05
2022-11-22T19:14:31.656Z,7.90
2022-11-22T19:17:21.862Z,8.05
2022-11-22T19:20:16.718Z,7.60
2022-11-22T19:23:14.983Z,7.63
2022-11-22T19:26:06.151Z,8.10
2022-11-22T19:28:56.524Z,6.38
2022-11-22T19:31:42.432Z,6.60
2022-11-22T19:34:29.113Z,7.05
2022-11-22T19:37:15.259Z,6.40
2022-11-22T19:40:01.281Z,5.80
2022-11-22T19:42:47.369Z,5.50
2022-11-22T19:45:33.707Z,5.47
2022-11-22T19:48:19.714Z,6.07
2022-11-22T19:51:14.202Z,5.38
2022-11-22T19:54:04.896Z,5.82
2022-11-22T19:56:51.043Z,5.43
2022-11-22T19:59:37.266Z,5.32
2022-11-22T20:02:23.443Z,5.30
2022-11-22T20:05:09.479Z,5.65
2022-11-22T20:07:55.459Z,5.75
2022-11-22T20:10:41.315Z,5.95
2022-11-22T20:13:27.500Z,7.18
2022-11-22T20:16:23.383Z,6.18
2022-11-22T20:19:11.418Z,6.68
2022-11-22T20:21:57.355Z,5.60
2022-11-22T20:24:43.324Z,5.35
2022-11-22T20:27:29.465Z,4.75
2022-11-22T20:30:16.027Z,5.32
2022-11-22T20:33:02.600Z,4.82
2022-11-22T20:35:48.912Z,4.40
2022-11-22T20:38:36.156Z,5.15
2022-11-22T20:41:24.841Z,5.35
2022-11-22T20:44:14.375Z,4.10
2022-11-22T20:47:01.320Z,4.25
2022-11-22T20:49:47.516Z,3.92
2022-11-22T20:52:33.495Z,4.65
2022-11-22T20:55:20.390Z,3.50
2022-11-22T20:58:06.323Z,3.65
2022-11-22T21:00:56.358Z,2.90
2022-11-22T21:03:42.395Z,2.90
2022-11-22T21:06:28.947Z,3.17
2022-11-22T21:09:16.229Z,2.85
2022-11-22T21:12:02.383Z,3.10
2022-11-22T21:14:52.510Z,2.92
2022-11-22T21:17:55.767Z,3.33
2022-11-22T21:20:45.684Z,3.22
2022-11-22T21:23:31.920Z,4.55
2022-11-22T21:26:17.829Z,3.17
2022-11-22T21:29:04.954Z,3.38
2022-11-22T21:31:51.053Z,3.20
2022-11-22T21:34:37.140Z,3.80
2022-11-22T21:37:24.156Z,3.58
2022-11-22T21:40:10.803Z,4.00
2022-11-22T21:42:56.905Z,4.40
2022-11-22T21:45:42.753Z,3.05
2022-11-22T21:48:29.818Z,2.85
2022-11-22T21:51:15.779Z,4.38
2022-11-22T21:54:02.045Z,2.63
2022-11-22T21:56:48.098Z,2.78
2022-11-22T21:59:34.476Z,2.80
2022-11-22T22:02:20.564Z,3.28
2022-11-22T22:05:06.875Z,2.60
2022-11-22T22:07:53.412Z,2.92
2022-11-22T22:10:39.724Z,2.85
2022-11-22T22:13:26.103Z,3.03
2022-11-22T22:16:23.755Z,2.45
2022-11-22T22:19:10.243Z,3.30
2022-11-22T22:21:56.567Z,2.75
2022-11-22T22:24:42.696Z,3.38
2022-11-22T22:27:31.439Z,3.33
2022-11-22T22:30:17.725Z,3.63
2022-11-22T22:33:03.999Z,3.83
2022-11-22T22:35:49.847Z,2.70
2022-11-22T22:38:35.821Z,3.03
2022-11-22T22:41:22.335Z,3.03
2022-11-22T22:44:08.412Z,2.45
2022-11-22T22:46:54.178Z,2.10
2022-11-22T22:49:40.150Z,1.90
2022-11-22T22:52:25.987Z,1.67
2022-11-22T22:55:12.047Z,1.80
2022-11-22T22:58:00.495Z,1.70
2022-11-22T23:00:46.383Z,2.00
2022-11-22T23:03:32.357Z,2.08
2022-11-22T23:06:18.430Z,2.22
2022-11-22T23:09:06.775Z,3.38
2022-11-22T23:12:10.703Z,2.10
2022-11-22T23:14:56.959Z,3.00
2022-11-22T23:17:42.999Z,1.80
2022-11-22T23:20:28.938Z,2.30
2022-11-22T23:23:14.819Z,3.17
2022-11-22T23:26:05.822Z,2.35
2022-11-22T23:28:53.308Z,2.05
2022-11-22T23:31:39.759Z,2.20
2022-11-22T23:34:25.803Z,2.15
2022-11-22T23:37:11.732Z,2.22
2022-11-22T23:39:57.684Z,2.00
2022-11-22T23:42:43.556Z,2.10
2022-11-22T23:45:29.396Z,3.53
2022-11-22T23:48:16.245Z,2.67
2022-11-22T23:51:03.973Z,2.40
2022-11-22T23:53:54.278Z,2.70
2022-11-22T23:56:40.472Z,2.22
2022-11-22T23:59:26.400Z,2.05
